createdAt,value
2023-02-13T00:01:22.596Z,55.63
2023-02-13T00:03:59.099Z,56.43
2023-02-13T00:06:34.556Z,54.47
2023-02-13T00:09:10.051Z,46.03
2023-02-13T00:11:38.935Z,55.60
2023-02-13T00:14:14.120Z,56.67
2023-02-13T00:16:42.880Z,53.47
2023-02-13T00:19:19.332Z,54.23
2023-02-13T00:21:48.139Z,56.17
2023-02-13T00:24:23.031Z,53.60
2023-02-13T00:26:51.548Z,51.30
2023-02-13T00:29:27.320Z,54.97
2023-02-13T00:31:56.047Z,59.90
2023-02-13T00:34:32.130Z,51.60
2023-02-13T00:37:00.868Z,61.93
2023-02-13T00:39:36.145Z,63.83
2023-02-13T00:42:04.811Z,64.90
2023-02-13T00:44:40.082Z,61.40
2023-02-13T00:47:08.862Z,60.27
2023-02-13T00:49:45.095Z,61.33
2023-02-13T00:52:13.683Z,59.60
2023-02-13T00:54:49.093Z,57.33
2023-02-13T00:57:19.706Z,58.47
2023-02-13T00:59:55.181Z,65.73
2023-02-13T01:02:23.685Z,58.33
2023-02-13T01:05:00.107Z,62.33
2023-02-13T01:07:35.413Z,58.07
2023-02-13T01:10:11.161Z,65.90
2023-02-13T01:12:39.816Z,62.60
2023-02-13T01:15:18.162Z,73.63
2023-02-13T01:17:47.062Z,64.33
2023-02-13T01:20:24.395Z,66.20
2023-02-13T01:22:52.945Z,63.73
2023-02-13T01:25:28.408Z,61.73
2023-02-13T01:27:57.358Z,59.80
2023-02-13T01:30:32.070Z,63.60
2023-02-13T01:33:00.950Z,63.53
2023-02-13T01:35:37.136Z,66.07
2023-02-13T01:38:05.632Z,63.13
2023-02-13T01:40:40.068Z,62.10
2023-02-13T01:43:13.157Z,56.90
2023-02-13T01:45:49.186Z,55.53
2023-02-13T01:48:20.806Z,53.97
2023-02-13T01:51:01.145Z,51.43
2023-02-13T01:53:35.073Z,50.00
2023-02-13T01:56:14.119Z,53.33
2023-02-13T01:58:45.594Z,52.53
2023-02-13T02:01:21.176Z,50.77
2023-02-13T02:03:59.861Z,48.13
2023-02-13T02:06:42.694Z,51.07
2023-02-13T02:09:16.284Z,51.07
2023-02-13T02:11:59.167Z,53.30
2023-02-13T02:14:28.764Z,54.70
2023-02-13T02:17:04.505Z,56.37
2023-02-13T02:19:40.392Z,55.50
2023-02-13T02:22:54.533Z,52.50
2023-02-13T02:25:59.160Z,59.57
2023-02-13T02:28:48.166Z,59.50
2023-02-13T02:32:05.224Z,65.47
2023-02-13T02:34:43.724Z,70.53
2023-02-13T02:37:33.229Z,58.50
2023-02-13T02:40:12.557Z,65.03
2023-02-13T02:42:59.509Z,77.87
2023-02-13T02:45:36.092Z,52.90
2023-02-13T02:48:36.162Z,62.80
2023-02-13T02:51:15.750Z,60.97
2023-02-13T02:53:56.222Z,63.93
2023-02-13T02:56:30.000Z,63.43
2023-02-13T02:59:27.256Z,60.23
2023-02-13T03:02:49.271Z,64.70
2023-02-13T03:05:39.186Z,70.70
2023-02-13T03:08:16.494Z,73.30
2023-02-13T03:11:08.242Z,186.60
2023-02-13T03:13:43.304Z,630.80
2023-02-13T03:16:41.509Z,786.30
2023-02-13T03:19:55.248Z,642.23
2023-02-13T03:22:32.901Z,696.07
2023-02-13T03:25:19.176Z,613.37
2023-02-13T03:28:15.126Z,481.23
2023-02-13T03:31:02.570Z,413.93
2023-02-13T03:33:56.577Z,377.20
2023-02-13T03:36:58.272Z,341.90
2023-02-13T03:39:36.932Z,268.83
2023-02-13T03:42:17.220Z,219.73
2023-02-13T03:45:13.484Z,150.93
2023-02-13T03:47:51.636Z,90.87
2023-02-13T03:50:19.894Z,111.57
2023-02-13T03:53:00.520Z,57.57
2023-02-13T03:55:51.060Z,51.07
2023-02-13T03:58:49.192Z,62.93
2023-02-13T04:01:20.701Z,68.57
2023-02-13T04:04:09.321Z,27.70
2023-02-13T04:06:41.266Z,29.10
2023-02-13T04:09:16.526Z,32.03
2023-02-13T04:11:55.256Z,27.87
2023-02-13T04:14:36.581Z,21.47
2023-02-13T04:17:08.720Z,18.13
2023-02-13T04:19:45.301Z,18.77
2023-02-13T04:22:14.576Z,18.63
2023-02-13T04:24:49.673Z,19.93
2023-02-13T04:27:19.421Z,18.93
2023-02-13T04:29:56.332Z,18.67
2023-02-13T04:32:24.636Z,23.17
2023-02-13T04:34:59.357Z,44.43
2023-02-13T04:37:34.262Z,48.23
2023-02-13T04:40:02.798Z,22.47
2023-02-13T04:42:31.653Z,24.63
2023-02-13T04:45:10.307Z,19.10
2023-02-13T04:47:38.816Z,23.20
2023-02-13T04:50:15.350Z,20.20
2023-02-13T04:52:44.129Z,19.77
2023-02-13T04:55:19.361Z,23.47
2023-02-13T04:57:48.266Z,15.63
2023-02-13T05:00:25.311Z,16.50
2023-02-13T05:03:01.217Z,17.87
2023-02-13T05:05:36.326Z,14.30
2023-02-13T05:08:05.122Z,19.70
2023-02-13T05:10:40.594Z,49.73
2023-02-13T05:13:10.072Z,190.53
2023-02-13T05:15:46.394Z,153.83
2023-02-13T05:18:15.991Z,70.77
2023-02-13T05:20:51.397Z,79.13
2023-02-13T05:23:26.775Z,57.77
2023-02-13T05:26:02.456Z,59.37
2023-02-13T05:28:48.561Z,28.20
2023-02-13T05:31:25.517Z,20.10
2023-02-13T05:33:54.245Z,21.80
2023-02-13T05:36:32.306Z,18.97
2023-02-13T05:39:07.413Z,21.77
2023-02-13T05:41:36.381Z,20.63
2023-02-13T05:44:11.317Z,23.33
2023-02-13T05:46:42.579Z,20.23
2023-02-13T05:49:19.403Z,24.63
2023-02-13T05:51:48.027Z,41.80
2023-02-13T05:54:23.666Z,36.60
2023-02-13T05:56:52.441Z,26.70
2023-02-13T05:59:28.397Z,26.27
2023-02-13T06:01:58.515Z,22.47
2023-02-13T06:04:40.635Z,23.87
2023-02-13T06:07:15.910Z,22.00
2023-02-13T06:09:51.699Z,20.63
2023-02-13T06:12:20.321Z,19.37
2023-02-13T06:14:55.663Z,16.80
2023-02-13T06:17:25.976Z,18.57
2023-02-13T06:20:01.661Z,18.20
2023-02-13T06:22:30.406Z,47.03
2023-02-13T06:25:05.468Z,72.73
2023-02-13T06:27:34.041Z,110.13
2023-02-13T06:30:09.437Z,81.20
2023-02-13T06:32:39.669Z,47.57
2023-02-13T06:35:15.690Z,44.27
2023-02-13T06:37:45.062Z,28.07
2023-02-13T06:40:21.721Z,30.20
2023-02-13T06:42:50.347Z,29.43
2023-02-13T06:45:25.713Z,25.10
2023-02-13T06:47:55.848Z,21.73
2023-02-13T06:50:30.432Z,23.23
2023-02-13T06:52:59.748Z,27.20
2023-02-13T06:55:35.394Z,32.10
2023-02-13T06:58:03.955Z,24.40
2023-02-13T07:00:39.667Z,29.13
2023-02-13T07:03:29.379Z,36.77
2023-02-13T07:05:58.261Z,30.07
2023-02-13T07:08:33.750Z,32.53
2023-02-13T07:11:02.659Z,25.97
2023-02-13T07:13:38.184Z,26.60
2023-02-13T07:16:07.536Z,22.03
2023-02-13T07:18:46.432Z,27.13
2023-02-13T07:21:15.058Z,22.83
2023-02-13T07:23:50.501Z,22.93
2023-02-13T07:26:19.092Z,22.63
2023-02-13T07:29:09.229Z,21.53
2023-02-13T07:31:39.463Z,23.47
2023-02-13T07:34:16.438Z,19.93
2023-02-13T07:36:45.080Z,21.17
2023-02-13T07:39:20.568Z,22.07
2023-02-13T07:41:49.195Z,23.23
2023-02-13T07:44:24.767Z,21.30
2023-02-13T07:46:53.542Z,22.90
2023-02-13T07:49:30.451Z,20.93
2023-02-13T07:51:59.531Z,22.80
2023-02-13T07:54:35.519Z,21.33
2023-02-13T07:57:05.545Z,21.20
2023-02-13T07:59:40.493Z,21.83
2023-02-13T08:02:13.696Z,20.60
2023-02-13T08:04:57.805Z,23.30
2023-02-13T08:07:26.378Z,20.77
2023-02-13T08:10:18.520Z,22.43
2023-02-13T08:12:47.657Z,25.47
2023-02-13T08:15:23.809Z,22.07
2023-02-13T08:17:52.842Z,23.57
2023-02-13T08:20:29.781Z,23.87
2023-02-13T08:23:05.441Z,22.20
2023-02-13T08:25:40.747Z,22.10
2023-02-13T08:28:09.372Z,21.47
2023-02-13T08:30:44.810Z,22.53
2023-02-13T08:33:14.388Z,21.20
2023-02-13T08:35:50.564Z,20.87
2023-02-13T08:38:19.010Z,20.77
2023-02-13T08:40:54.547Z,23.17
2023-02-13T08:43:23.178Z,23.27
2023-02-13T08:45:59.172Z,20.63
2023-02-13T08:48:28.016Z,19.87
2023-02-13T08:51:04.812Z,20.47
2023-02-13T08:53:34.712Z,19.73
2023-02-13T08:56:09.548Z,20.70
2023-02-13T08:58:38.014Z,22.07
2023-02-13T09:01:17.656Z,20.60
2023-02-13T09:03:53.284Z,20.63
2023-02-13T09:06:32.795Z,21.40
2023-02-13T09:09:01.962Z,20.03
2023-02-13T09:11:37.511Z,20.20
2023-02-13T09:14:06.505Z,17.60
2023-02-13T09:16:42.063Z,17.17
2023-02-13T09:19:19.768Z,20.23
2023-02-13T09:21:49.760Z,18.30
2023-02-13T09:24:24.517Z,19.57
2023-02-13T09:26:53.236Z,19.70
2023-02-13T09:29:28.848Z,16.93
2023-02-13T09:31:58.615Z,19.80
2023-02-13T09:34:33.931Z,19.87
2023-02-13T09:37:03.817Z,20.70
2023-02-13T09:39:38.629Z,21.90
2023-02-13T09:42:17.289Z,21.67
2023-02-13T09:44:54.605Z,18.40
2023-02-13T09:47:31.382Z,18.53
2023-02-13T09:50:09.538Z,18.60
2023-02-13T09:52:41.345Z,16.13
2023-02-13T09:55:24.619Z,15.43
2023-02-13T09:58:00.238Z,17.23
2023-02-13T10:00:41.585Z,15.93
2023-02-13T10:03:43.286Z,14.90
2023-02-13T10:06:26.905Z,17.23
2023-02-13T10:09:14.911Z,14.13
2023-02-13T10:12:19.680Z,13.33
2023-02-13T10:14:56.762Z,15.57
2023-02-13T10:17:37.507Z,12.63
2023-02-13T10:20:08.495Z,15.13
2023-02-13T10:22:48.586Z,13.10
2023-02-13T10:25:23.376Z,12.47
2023-02-13T10:28:05.931Z,13.23
2023-02-13T10:30:45.303Z,12.93
2023-02-13T10:33:29.604Z,14.57
2023-02-13T10:36:10.716Z,12.13
2023-02-13T10:38:45.094Z,13.57
2023-02-13T10:41:38.598Z,13.60
2023-02-13T10:44:25.676Z,16.67
2023-02-13T10:47:12.716Z,14.43
2023-02-13T10:50:03.381Z,12.13
2023-02-13T10:52:49.653Z,11.60
2023-02-13T10:55:44.026Z,11.17
2023-02-13T10:58:26.898Z,12.50
2023-02-13T11:01:00.168Z,10.87
2023-02-13T11:03:37.638Z,10.37
2023-02-13T11:06:17.991Z,10.47
2023-02-13T11:08:55.919Z,9.57
2023-02-13T11:11:31.976Z,9.07
2023-02-13T11:14:20.670Z,9.33
2023-02-13T11:16:59.049Z,9.10
2023-02-13T11:19:39.907Z,9.63
2023-02-13T11:22:13.709Z,8.57
2023-02-13T11:24:49.726Z,8.10
2023-02-13T11:27:24.232Z,8.23
2023-02-13T11:30:08.694Z,7.13
2023-02-13T11:32:37.343Z,7.60
2023-02-13T11:35:35.653Z,8.43
2023-02-13T11:38:16.196Z,10.73
2023-02-13T11:40:54.636Z,8.17
2023-02-13T11:43:29.293Z,7.47
2023-02-13T11:46:22.733Z,7.90
2023-02-13T11:49:23.917Z,7.43
2023-02-13T11:51:54.704Z,7.63
2023-02-13T11:54:41.724Z,7.87
2023-02-13T11:57:23.248Z,7.00
2023-02-13T12:00:00.625Z,8.43
2023-02-13T12:02:31.776Z,8.80
2023-02-13T12:05:30.950Z,7.90
2023-02-13T12:08:03.047Z,8.00
2023-02-13T12:10:41.307Z,8.47
2023-02-13T12:13:17.046Z,8.30
2023-02-13T12:15:56.903Z,8.77
2023-02-13T12:18:35.636Z,8.80
2023-02-13T12:21:21.722Z,7.80
2023-02-13T12:23:57.468Z,8.43
2023-02-13T12:26:38.733Z,7.50
2023-02-13T12:29:44.147Z,9.37
2023-02-13T12:32:26.040Z,7.83
2023-02-13T12:35:16.339Z,8.23
2023-02-13T12:38:14.496Z,7.93
2023-02-13T12:41:28.860Z,8.37
2023-02-13T12:44:21.903Z,7.27
2023-02-13T12:47:06.811Z,7.33
2023-02-13T12:50:08.849Z,7.07
2023-02-13T12:52:56.011Z,7.47
2023-02-13T12:55:50.661Z,7.57
2023-02-13T12:58:53.721Z,7.23
2023-02-13T13:01:33.102Z,6.70
2023-02-13T13:04:17.693Z,7.13
2023-02-13T13:07:16.013Z,7.30
2023-02-13T13:10:05.776Z,8.07
2023-02-13T13:12:45.796Z,7.43
2023-02-13T13:15:29.727Z,7.43
2023-02-13T13:18:15.033Z,7.70
2023-02-13T13:21:16.819Z,8.80
2023-02-13T13:24:03.811Z,7.70
2023-02-13T13:26:37.600Z,7.67
2023-02-13T13:29:19.056Z,8.13
2023-02-13T13:31:52.598Z,8.13
2023-02-13T13:34:31.732Z,7.87
2023-02-13T13:37:05.831Z,7.33
2023-02-13T13:39:54.832Z,9.33
2023-02-13T13:42:33.768Z,8.97
2023-02-13T13:45:29.698Z,7.57
2023-02-13T13:48:41.708Z,7.90
2023-02-13T13:51:25.763Z,7.80
2023-02-13T13:54:20.244Z,7.60
2023-02-13T13:57:18.088Z,9.83
2023-02-13T14:00:14.161Z,8.03
2023-02-13T14:02:50.016Z,7.50
2023-02-13T14:05:39.069Z,8.67
2023-02-13T14:08:48.333Z,8.67
2023-02-13T14:11:49.819Z,7.57
2023-02-13T14:14:46.475Z,6.73
2023-02-13T14:17:23.807Z,6.97
2023-02-13T14:19:54.605Z,6.30
2023-02-13T14:22:43.129Z,6.63
2023-02-13T14:25:25.147Z,6.30
2023-02-13T14:28:14.774Z,6.53
2023-02-13T14:30:43.976Z,6.90
2023-02-13T14:33:34.170Z,6.90
2023-02-13T14:36:06.112Z,7.07
2023-02-13T14:38:41.799Z,6.50
2023-02-13T14:41:49.136Z,8.03
2023-02-13T14:44:22.706Z,7.50
2023-02-13T14:47:00.177Z,7.13
2023-02-13T14:49:32.451Z,7.17
2023-02-13T14:52:10.874Z,6.83
2023-02-13T14:54:45.352Z,7.10
2023-02-13T14:57:26.877Z,8.17
2023-02-13T15:00:02.700Z,6.97
2023-02-13T15:02:41.884Z,8.33
2023-02-13T15:05:20.332Z,7.47
2023-02-13T15:07:59.850Z,7.50
2023-02-13T15:10:42.719Z,7.20
2023-02-13T15:13:25.782Z,7.63
2023-02-13T15:16:00.250Z,6.73
2023-02-13T15:18:38.827Z,7.57
2023-02-13T15:21:07.487Z,8.07
2023-02-13T15:23:42.838Z,7.63
2023-02-13T15:26:23.101Z,7.93
2023-02-13T15:29:14.113Z,8.67
2023-02-13T15:31:48.010Z,7.67
2023-02-13T15:34:30.175Z,7.03
2023-02-13T15:36:59.204Z,7.60
2023-02-13T15:39:35.861Z,7.73
2023-02-13T15:42:05.489Z,8.07
2023-02-13T15:44:42.861Z,7.07
2023-02-13T15:47:19.586Z,7.90
2023-02-13T15:49:56.841Z,8.93
2023-02-13T15:52:33.611Z,8.57
2023-02-13T15:55:08.893Z,7.80
2023-02-13T15:57:38.719Z,7.67
2023-02-13T16:00:22.158Z,7.37
2023-02-13T16:02:54.858Z,10.37
2023-02-13T16:05:40.095Z,8.23
2023-02-13T16:08:44.870Z,7.40
2023-02-13T16:11:29.933Z,8.60
2023-02-13T16:14:11.175Z,7.50
2023-02-13T16:16:47.476Z,8.47
2023-02-13T16:19:33.531Z,9.37
2023-02-13T16:22:06.861Z,8.00
2023-02-13T16:24:41.909Z,7.13
2023-02-13T16:27:16.867Z,7.70
2023-02-13T16:29:59.264Z,8.03
2023-02-13T16:32:31.146Z,8.50
2023-02-13T16:35:38.060Z,8.40
2023-02-13T16:38:06.738Z,8.87
2023-02-13T16:40:46.987Z,8.17
2023-02-13T16:43:38.378Z,7.93
2023-02-13T16:46:38.960Z,8.90
2023-02-13T16:49:20.007Z,7.77
2023-02-13T16:51:58.986Z,8.23
2023-02-13T16:54:38.952Z,7.70
2023-02-13T16:57:20.125Z,8.27
2023-02-13T17:00:10.275Z,9.20
2023-02-13T17:02:40.951Z,8.43
2023-02-13T17:05:30.996Z,8.10
2023-02-13T17:08:09.572Z,8.23
2023-02-13T17:10:48.210Z,9.97
2023-02-13T17:13:19.642Z,8.70
2023-02-13T17:15:56.064Z,8.67
2023-02-13T17:18:24.626Z,13.70
2023-02-13T17:21:00.313Z,11.40
2023-02-13T17:23:30.783Z,7.93
2023-02-13T17:26:05.992Z,8.67
2023-02-13T17:28:34.579Z,11.27
2023-02-13T17:31:10.046Z,10.43
2023-02-13T17:33:40.224Z,16.13
2023-02-13T17:36:17.979Z,16.77
2023-02-13T17:38:48.695Z,10.20
2023-02-13T17:41:23.969Z,11.37
2023-02-13T17:43:52.486Z,10.23
2023-02-13T17:46:28.030Z,11.17
2023-02-13T17:48:56.461Z,9.83
2023-02-13T17:51:32.495Z,11.10
2023-02-13T17:54:06.061Z,8.00
2023-02-13T17:56:41.081Z,8.53
2023-02-13T17:59:10.326Z,8.30
2023-02-13T18:01:45.022Z,10.23
2023-02-13T18:04:26.855Z,8.03
2023-02-13T18:07:02.011Z,10.93
2023-02-13T18:09:32.369Z,8.13
2023-02-13T18:12:06.918Z,7.70
2023-02-13T18:14:36.519Z,8.70
2023-02-13T18:17:12.328Z,7.87
2023-02-13T18:19:42.954Z,9.67
2023-02-13T18:22:18.082Z,9.40
2023-02-13T18:24:48.817Z,9.77
2023-02-13T18:27:24.348Z,11.17
2023-02-13T18:29:53.097Z,8.97
2023-02-13T18:32:28.060Z,9.17
2023-02-13T18:34:56.617Z,9.53
2023-02-13T18:37:34.090Z,10.87
2023-02-13T18:40:04.219Z,11.17
2023-02-13T18:42:40.035Z,11.93
2023-02-13T18:45:09.029Z,10.20
2023-02-13T18:47:44.106Z,10.83
2023-02-13T18:50:13.687Z,9.80
2023-02-13T18:52:49.029Z,9.60
2023-02-13T18:55:20.252Z,11.30
2023-02-13T18:57:55.259Z,10.70
2023-02-13T19:00:25.811Z,14.33
2023-02-13T19:03:01.026Z,12.10
2023-02-13T19:05:41.176Z,10.40
2023-02-13T19:08:16.014Z,9.80
2023-02-13T19:10:46.975Z,10.00
2023-02-13T19:13:22.038Z,16.40
2023-02-13T19:15:50.405Z,10.87
2023-02-13T19:18:25.050Z,11.97
2023-02-13T19:20:53.544Z,11.33
2023-02-13T19:23:29.134Z,10.73
2023-02-13T19:25:59.708Z,9.70
2023-02-13T19:28:35.088Z,12.17
2023-02-13T19:31:06.454Z,11.53
2023-02-13T19:33:47.848Z,10.90
2023-02-13T19:36:27.392Z,13.20
2023-02-13T19:38:57.605Z,11.77
2023-02-13T19:41:36.130Z,10.37
2023-02-13T19:44:05.811Z,11.17
2023-02-13T19:46:41.467Z,10.63
2023-02-13T19:49:10.133Z,10.23
2023-02-13T19:51:45.449Z,14.00
2023-02-13T19:54:14.967Z,11.83
2023-02-13T19:56:52.400Z,10.20
2023-02-13T19:59:21.260Z,10.87
2023-02-13T20:01:56.120Z,11.80
2023-02-13T20:04:36.852Z,12.80
2023-02-13T20:07:19.118Z,14.17
2023-02-13T20:09:47.770Z,13.90
2023-02-13T20:12:25.460Z,12.57
2023-02-13T20:14:56.346Z,13.80
2023-02-13T20:17:31.452Z,13.73
2023-02-13T20:20:00.382Z,13.60
2023-02-13T20:22:37.155Z,12.60
2023-02-13T20:25:06.643Z,14.90
2023-02-13T20:27:48.469Z,14.93
2023-02-13T20:30:19.105Z,13.53
2023-02-13T20:32:54.460Z,13.87
2023-02-13T20:35:23.328Z,13.73
2023-02-13T20:37:58.442Z,14.47
2023-02-13T20:40:27.644Z,13.47
2023-02-13T20:43:04.144Z,12.37
2023-02-13T20:45:33.050Z,13.10
2023-02-13T20:48:08.159Z,14.53
2023-02-13T20:50:39.715Z,13.33
2023-02-13T20:53:17.135Z,14.40
2023-02-13T20:55:45.647Z,13.60
2023-02-13T20:58:22.211Z,14.97
2023-02-13T21:00:51.063Z,15.17
2023-02-13T21:03:26.438Z,14.67
2023-02-13T21:06:01.933Z,14.00
2023-02-13T21:08:37.157Z,13.87
2023-02-13T21:11:07.425Z,15.03
2023-02-13T21:13:46.445Z,14.20
2023-02-13T21:16:16.749Z,15.20
2023-02-13T21:18:55.341Z,14.60
2023-02-13T21:21:25.369Z,14.20
2023-02-13T21:24:01.195Z,14.60
2023-02-13T21:26:30.885Z,14.83
2023-02-13T21:29:07.463Z,16.43
2023-02-13T21:31:37.591Z,15.10
2023-02-13T21:34:15.428Z,14.47
2023-02-13T21:36:44.096Z,16.43
2023-02-13T21:39:20.758Z,14.33
2023-02-13T21:41:49.409Z,14.60
2023-02-13T21:44:26.503Z,16.03
2023-02-13T21:46:55.066Z,16.37
2023-02-13T21:49:31.484Z,17.37
2023-02-13T21:52:00.355Z,15.50
2023-02-13T21:54:35.538Z,15.23
2023-02-13T21:57:04.012Z,15.43
2023-02-13T21:59:40.491Z,15.70
2023-02-13T22:02:09.222Z,15.83
2023-02-13T22:04:44.539Z,16.73
2023-02-13T22:07:19.512Z,16.80
2023-02-13T22:09:54.508Z,18.10
2023-02-13T22:12:23.415Z,17.13
2023-02-13T22:15:02.652Z,15.57
2023-02-13T22:17:41.265Z,15.97
2023-02-13T22:20:10.207Z,16.07
2023-02-13T22:22:46.245Z,16.80
2023-02-13T22:25:15.232Z,16.20
2023-02-13T22:27:54.593Z,16.90
2023-02-13T22:30:25.071Z,16.03
2023-02-13T22:33:00.559Z,17.37
2023-02-13T22:35:29.144Z,18.17
2023-02-13T22:38:04.235Z,17.90
2023-02-13T22:40:32.932Z,18.03
2023-02-13T22:43:08.559Z,17.87
2023-02-13T22:45:39.605Z,16.77
2023-02-13T22:48:15.537Z,16.47
2023-02-13T22:50:43.995Z,16.37
2023-02-13T22:53:19.559Z,17.27
2023-02-13T22:55:48.098Z,15.50
2023-02-13T22:58:23.510Z,16.67
2023-02-13T23:00:53.657Z,17.40
2023-02-13T23:03:29.527Z,16.67
2023-02-13T23:06:04.662Z,16.57
2023-02-13T23:08:40.558Z,17.07
2023-02-13T23:11:29.200Z,17.37
2023-02-13T23:14:04.292Z,15.60
2023-02-13T23:16:54.356Z,17.20
2023-02-13T23:19:28.267Z,18.47
2023-02-13T23:21:57.264Z,17.40
2023-02-13T23:24:32.313Z,17.33
2023-02-13T23:27:01.604Z,15.80
2023-02-13T23:29:36.281Z,16.40
2023-02-13T23:32:06.671Z,16.90
2023-02-13T23:34:44.275Z,16.53
2023-02-13T23:37:15.045Z,15.60
2023-02-13T23:39:50.573Z,16.77
2023-02-13T23:42:18.787Z,16.87
2023-02-13T23:44:54.512Z,19.10
2023-02-13T23:47:24.493Z,18.17
2023-02-13T23:49:59.613Z,18.47
2023-02-13T23:52:28.282Z,16.30
2023-02-13T23:55:03.385Z,17.20
2023-02-13T23:57:31.873Z,19.43
